Aérodrome :
LOGIN :

S'inscrire | Disclaimer

   EN    FR    IT 

 










Légende :    VFR   VFR Marginal   IFR   IFR Intensif   IFR Très Intensif
Visi : 
Plafond : 
>= 8 km
>= 3000ft
5 à 8 km
1000 à 3000 ft
1500m à 5 km
500 à 1000 ft
800 à 1500m
200 à 500 ft
< 800m
< 200 ft
Symboles :   Orages  Brouillard  Fortes neiges  Fortes précipitations  Vent > 20 kt
SIGMETs :   Divers  Orages  Givrage  Turbulence  Onde Orograph.  Cendres Volcan.







- Altitude de l'aérodrome : 286 ft
- Code IATA : FFD


EGVA - RAF Fairford

DERNIER METAR :
  • 211721Z AUTO 22011KT 9000 -RA BR BKN013 OVC030 11/08 A2950 RMK AO2 CIG 013V030 SLP993 $

METARs EXPIRÉS :
  • 211656Z AUTO 22011G25KT 9999 -RA SCT023 OVC030 11/08 A2949 RMK AO2 PK WND 22032/05 DZB1556E1557RAB1557E17DZB17E32RAB32E45DZB52E54RAB54 SLP990 P0000 T01100084 $
  • 211652Z AUTO 23013G25KT 9999 -DZ BKN022 OVC030 11/08 A2949 RMK AO2 DZB1556E1557RAB1557E17DZB17E32RAB32E45DZB52 BKN V OVC SLP990 $
  • 211645Z AUTO 22018G25KT 9999 OVC022 11/09 A2949 RMK AO2 DZB1556E1557RAB1557E17DZB17E32RAB32E45 SLP990 $
  • 211557Z AUTO 24019G28KT 9999 -DZ FEW018 OVC024 12/08 A2949 RMK AO2 DZB56 SLP990 $
  • 211551Z AUTO 23021G29KT 9999 OVC024 12/08 A2949 RMK AO2 DZB09E21DZB25E29RAB29E46DZB46E49DZB50E51 SLP990 $
  • 211549Z AUTO 23022G29KT 9999 OVC026 12/08 A2949 RMK AO2 DZB09E21DZB25E29RAB29E46DZB46E49 CIG 024 RWY09 SLP990 $
  • 211525Z AUTO 24021G29KT 9999 -DZ OVC027 13/08 A2948 RMK AO2 DZB09E21DZB25 OVC V BKN SLP986 $
  • 211509Z AUTO 23022G31KT 9999 -DZ BKN029 OVC039 13/08 A2948 RMK AO2 DZB09 SLP986 $
  • 211456Z AUTO 22024G34KT 9999 BKN032 OVC039 13/08 A2948 RMK AO2 PK WND 22040/25 SLP986 60000 T01280075 55001 $

Prévision TAF périmée.
Pas de NOTAMs connus pour ce terrain.
2 SIGMETs publiés pour la FIR London (EGTT) :
 
Turbulence forte
EGTT SIGMET 05 VALID 211800/212200 EGRR
EGTT LONDON FIR SEV TURB FCST SE OF LINE N5500 W00059 - N5332 W00530 SFC/FL060 STNR WKN=
Turbulence forte
EGTT SIGMET 04 VALID 211400/211800 EGRR
EGTT LONDON FIR SEV TURB FCST S OF N5400 SFC/FL060 STNR WKN=



MET'MAP, la Météo Aéronautique d'un coup d'oeil ! - Copyright ORBIFLY Décembre 2007 - Disclaimer

ORBIFLY MET'MAP TEAM :

Programmation & Développement : Alexandra Zaïnal
Conception & Développement : Baudouin d'Aumeries
Co-Programmation & Développement : Marc-Olivier Méhu
Soutien technique & logistique : Manuel Goepfert

Contact : metmap@orbifly.com




SOURCES & CREDITS :

   NOAA